Decoded Metar for CYQX (GANDER in NL, CANADA) (IATA:YQX) | Meteo·Mobile Aviation Weather
aviador You're here:

CYQX Decoded Metar

GANDER in NL, CANADA
Report Time2018-10-20 04:32:00
UTC Time2018-10-20 05:00:41
Flight Rules mvfr MVFR
Wind140° at 09 kt
W.Decomp.*RWY 13: 7.6 kt HW 4.8 kt RCW
RWY 21: 6.0 kt HW 6.7 kt LCW
W.Rank140° ranks 24
Current wind is below 140° avg. (9.7)
Visibility9999 m
Phenomena:N/A
Clouds:Few 009 Hf
Broken 021 Hf
Broken 060 Hf
Ceiling2,100 ft
Temp00°C (ISA -14)
Dew Point00°C (100% RH)
AAT-5.2°C
QNH1015 hPa
Density Alt-1,201 ft
Elevation495 ft
Report Wrong Elevation
Raw Report
SPECI CYQX 200432Z 14009KT 12SM FEW009 BKN021 BKN060 00/M00 A2996 RMK
SF2SC3SC2 SLP154=

Extra information for CYQX:More info

Metar Taf Metar & Taf Last 4 Metars F.Rules Stats Wind Profile Meteogram Temp Stats Airport Information Weather charts Add Link Nearby VenuesMetar ALERT Operation Metar Decoded Social comments